createdAt,value
2024-05-09T00:02:56.383Z,100921.03154956076
2024-05-09T00:05:53.995Z,100912.75629428202
2024-05-09T00:08:51.479Z,100908.46705352516
2024-05-09T00:11:50.098Z,100913.30514915212
2024-05-09T00:14:47.605Z,100915.91223268054
2024-05-09T00:17:45.431Z,100914.78765571848
2024-05-09T00:20:43.748Z,100919.66562372024
2024-05-09T00:23:42.328Z,100924.06911742997
2024-05-09T00:26:39.896Z,100923.83377348818
2024-05-09T00:29:37.395Z,100911.91899125317
2024-05-09T00:32:35.124Z,100906.71782711851
2024-05-09T00:35:32.630Z,100906.73155440678
2024-05-09T00:38:30.184Z,100910.58770656578
2024-05-09T00:41:27.710Z,100907.96149155624
2024-05-09T00:44:26.264Z,100906.43738384034
2024-05-09T00:50:36.529Z,100917.19467664322
2024-05-09T00:53:35.883Z,100921.49792472647
2024-05-09T00:56:35.440Z,100919.38850817997
2024-05-09T00:59:33.929Z,100924.54745933172
2024-05-09T01:05:30.010Z,100916.85579608791
2024-05-09T01:08:27.626Z,100919.08882183756
2024-05-09T01:11:25.194Z,100914.61598970655
2024-05-09T01:14:22.679Z,100911.12975589128
2024-05-09T01:17:21.338Z,100913.96544548498
2024-05-09T01:20:23.047Z,100915.17353905005
2024-05-09T01:23:29.340Z,100915.60657883307
2024-05-09T01:26:27.952Z,100914.6316335483
2024-05-09T01:29:25.568Z,100913.38505924723
2024-05-09T01:32:25.115Z,100911.0934137856
2024-05-09T01:35:23.728Z,100916.45725521278
2024-05-09T01:38:22.188Z,100917.95273747016
2024-05-09T01:41:21.714Z,100921.35245612699
2024-05-09T01:44:19.283Z,100925.01923351151
2024-05-09T01:47:16.967Z,100924.65304133475
2024-05-09T01:53:15.364Z,100918.84038341406
2024-05-09T01:56:13.420Z,100928.81701565704
2024-05-09T01:59:10.975Z,100926.83774371164
2024-05-09T02:02:08.711Z,100922.69552612455
2024-05-09T02:05:08.278Z,100917.82207580862
2024-05-09T02:08:06.684Z,100921.44348100075
2024-05-09T02:11:04.282Z,100922.77469249393
2024-05-09T02:14:02.861Z,100929.50041451093
2024-05-09T02:17:00.305Z,100918.63114305654
2024-05-09T02:19:57.876Z,100920.72564140818
2024-05-09T02:22:57.512Z,100923.43180923912
2024-05-09T02:25:55.032Z,100918.97005701209
2024-05-09T02:28:53.516Z,100916.78584450156
2024-05-09T02:31:51.092Z,100917.1064347358
2024-05-09T02:34:48.706Z,100920.24957283826
2024-05-09T02:37:46.232Z,100918.67539293144
2024-05-09T02:40:43.785Z,100918.67861868854
2024-05-09T02:43:41.280Z,100923.18358515277
2024-05-09T02:46:39.846Z,100931.61608367396
2024-05-09T02:49:37.539Z,100929.69622873497
2024-05-09T02:52:34.942Z,100931.09387276994
2024-05-09T02:55:32.742Z,100935.04623696144
2024-05-09T02:58:30.042Z,100924.78374795317
2024-05-09T03:01:27.709Z,100932.36742840179
2024-05-09T03:04:25.215Z,100933.13872119188
2024-05-09T03:07:22.795Z,100935.30242498289
2024-05-09T03:10:25.574Z,100935.50496216166
2024-05-09T03:13:27.818Z,100938.0563852114
2024-05-09T03:16:25.412Z,100938.16803712766
2024-05-09T03:19:24.065Z,100949.02267311476
2024-05-09T03:22:21.504Z,100945.77666354846
2024-05-09T03:25:19.036Z,100942.05906981193
2024-05-09T03:28:16.619Z,100942.33639760921
2024-05-09T03:31:14.160Z,100942.64235079022
2024-05-09T03:34:11.819Z,100946.28999911908
2024-05-09T03:37:09.275Z,100953.54966248549
2024-05-09T03:40:11.818Z,100959.31305150373
2024-05-09T03:46:20.889Z,100967.5938381749
2024-05-09T03:49:18.686Z,100971.8782103136
2024-05-09T03:52:16.008Z,100970.46062518166
2024-05-09T03:55:18.531Z,100970.4740807951
2024-05-09T03:58:16.092Z,100977.97489235263
2024-05-09T04:01:14.761Z,100977.81219209988
2024-05-09T04:04:12.302Z,100974.78840188301
2024-05-09T04:07:09.789Z,100978.6965500059
2024-05-09T04:10:11.267Z,100978.64416967856
2024-05-09T04:16:20.457Z,100989.96776509951
2024-05-09T04:19:19.181Z,100989.12243482075
2024-05-09T04:22:17.855Z,100991.04970440868
2024-05-09T04:25:15.067Z,100987.52829465913
2024-05-09T04:28:12.800Z,100989.11009764022
2024-05-09T04:31:10.172Z,100991.81014906958
2024-05-09T04:34:07.880Z,100988.97732160694
2024-05-09T04:37:07.370Z,100991.60458448892
2024-05-09T04:40:08.906Z,100997.19615423621
2024-05-09T04:43:15.406Z,100999.18489198959
2024-05-09T04:46:14.906Z,100999.971936933
2024-05-09T04:49:12.567Z,101001.23170236108
2024-05-09T04:52:10.028Z,100997.38503464681
2024-05-09T04:55:07.591Z,100996.47159574096
2024-05-09T04:58:05.146Z,100995.08512133511
2024-05-09T05:01:02.772Z,100998.56085991536
2024-05-09T05:04:01.410Z,101001.86763132848
2024-05-09T05:07:02.145Z,101001.52095770957
2024-05-09T05:10:01.343Z,101001.46142561776
2024-05-09T05:13:18.190Z,101006.93290663144
2024-05-09T05:16:16.437Z,101005.08374199335
2024-05-09T05:19:17.468Z,100999.16298013579
2024-05-09T05:22:15.532Z,101004.68604715649
2024-05-09T05:25:13.191Z,101009.23572515119
2024-05-09T05:28:10.766Z,101010.2672480318
2024-05-09T05:31:10.249Z,101012.9244106716
2024-05-09T05:34:07.789Z,101008.26807041661
2024-05-09T05:37:06.314Z,101011.23015725482
2024-05-09T05:40:04.394Z,101011.97030445072
2024-05-09T05:43:03.400Z,101010.85856088683
2024-05-09T05:46:00.982Z,101011.89404834581
2024-05-09T05:48:58.617Z,101003.53378619821
2024-05-09T05:51:56.088Z,101003.62433506052
2024-05-09T05:54:53.973Z,101015.47996352639
2024-05-09T05:57:52.222Z,101013.64291831451
2024-05-09T06:00:52.813Z,101008.71608263206
2024-05-09T06:03:50.520Z,101007.07764847795
2024-05-09T06:06:49.856Z,101012.74602170284
2024-05-09T06:09:48.271Z,101019.29853183565
2024-05-09T06:12:52.083Z,101021.3167144918
2024-05-09T06:15:50.507Z,101022.0698008578
2024-05-09T06:18:48.258Z,101023.0708566979
2024-05-09T06:21:45.628Z,101031.38356716857
2024-05-09T06:24:44.157Z,101035.17408386485
2024-05-09T06:27:41.728Z,101032.48447484657
2024-05-09T06:30:42.097Z,101031.19137215633
2024-05-09T06:33:42.311Z,101042.53439516868
2024-05-09T06:36:40.389Z,101040.72873989308
2024-05-09T06:39:37.951Z,101040.8964135104
2024-05-09T06:42:35.500Z,101043.93326227595
2024-05-09T06:45:33.062Z,101033.82753257533
2024-05-09T06:48:30.752Z,101036.01485182813
2024-05-09T06:51:28.184Z,101034.4630474911
2024-05-09T06:54:25.720Z,101037.40143915062
2024-05-09T06:57:23.301Z,101038.98636298995
2024-05-09T07:03:25.592Z,101034.75863808047
2024-05-09T07:06:23.961Z,101036.29646660226
2024-05-09T07:09:22.491Z,101039.22073164699
2024-05-09T07:12:20.155Z,101031.03278786018
2024-05-09T07:15:17.634Z,101034.84543892687
2024-05-09T07:18:15.571Z,101029.0894025328
2024-05-09T07:21:13.928Z,101030.66315028619
2024-05-09T07:24:11.289Z,101022.92057310879
2024-05-09T07:27:08.831Z,101025.52874431899
2024-05-09T07:30:09.441Z,101022.85904639438
2024-05-09T07:33:09.145Z,101032.32577149874
2024-05-09T07:36:07.468Z,101028.79738154047
2024-05-09T07:39:06.062Z,101030.30266365391
2024-05-09T07:42:03.587Z,101024.79217410386
2024-05-09T07:45:21.320Z,101023.77226111016
2024-05-09T07:54:21.981Z,101025.75838029227
2024-05-09T07:57:19.380Z,101025.20874040964
2024-05-09T08:00:20.488Z,101032.9556550499
2024-05-09T08:03:29.541Z,101027.37909837745
2024-05-09T08:06:27.072Z,101029.01747176146
2024-05-09T08:09:24.498Z,101025.6259903627
2024-05-09T08:12:25.061Z,101025.059615402
2024-05-09T08:15:22.650Z,101026.51872149356
2024-05-09T08:18:20.507Z,101025.65833516441
2024-05-09T08:21:20.707Z,101030.19278058172
2024-05-09T08:24:19.265Z,101018.33663142941
2024-05-09T08:27:17.840Z,101029.95811269291
2024-05-09T08:30:22.005Z,101031.23760809099
2024-05-09T08:33:28.073Z,101024.31777333966
2024-05-09T08:36:26.481Z,101027.36248820394
2024-05-09T08:39:24.010Z,101023.55517474603
2024-05-09T08:42:24.551Z,101027.42366805719
2024-05-09T08:45:22.476Z,101027.7062320259
2024-05-09T08:48:23.846Z,101025.01771517892
2024-05-09T08:51:24.239Z,101032.3860771036
2024-05-09T08:54:22.798Z,101031.1631095122
2024-05-09T08:57:22.308Z,101031.48351152202
2024-05-09T09:00:33.724Z,101034.97670771553
2024-05-09T09:03:36.831Z,101037.07416444905
2024-05-09T09:06:35.974Z,101030.58952482404
2024-05-09T09:09:34.559Z,101027.60971791582
2024-05-09T09:12:32.193Z,101026.09507648612
2024-05-09T09:15:29.664Z,101029.67585095433
2024-05-09T09:18:30.624Z,101022.0012194921
2024-05-09T09:21:29.767Z,101022.53059046903
2024-05-09T09:24:27.338Z,101026.39216522899
2024-05-09T09:27:24.797Z,101015.75258151822
2024-05-09T09:30:31.643Z,101025.05514805652
2024-05-09T09:33:35.926Z,101017.61283781813
2024-05-09T09:36:36.484Z,101018.6151193954
2024-05-09T09:39:35.019Z,101021.38598380017
2024-05-09T09:42:35.572Z,101017.90138312375
2024-05-09T09:45:34.193Z,101018.86589299307
2024-05-09T09:48:33.774Z,101015.02252908047
2024-05-09T09:51:32.237Z,101011.34069347438
2024-05-09T09:54:29.812Z,101010.2737076249
2024-05-09T09:57:30.339Z,101008.26395170737
2024-05-09T10:00:33.324Z,100994.74176569062
2024-05-09T10:03:31.583Z,101007.38877466711
2024-05-09T10:06:28.989Z,101004.12324612789
2024-05-09T10:09:27.648Z,101002.20860204082
2024-05-09T10:12:26.149Z,101005.36368242087
2024-05-09T10:15:24.637Z,101003.73274420296
2024-05-09T10:18:28.524Z,101016.9612812865
2024-05-09T10:21:28.769Z,101002.58943193732
2024-05-09T10:24:47.272Z,100993.0761981175
2024-05-09T10:31:03.107Z,101005.01387258539
2024-05-09T10:34:07.993Z,101004.66979553942
2024-05-09T10:37:05.439Z,100999.93845312145
2024-05-09T10:40:14.084Z,100998.73630207193
2024-05-09T10:43:19.937Z,100994.57512651551
2024-05-09T10:46:19.927Z,100995.40504207814
2024-05-09T10:49:17.771Z,100991.67936782163
2024-05-09T10:52:15.303Z,100986.84438220595
2024-05-09T10:55:12.672Z,100980.79135397405
2024-05-09T10:58:17.305Z,100986.28561678177
2024-05-09T11:01:20.856Z,100978.86791888962
2024-05-09T11:04:20.509Z,100975.15952965945
2024-05-09T11:07:20.917Z,100979.25875118765
2024-05-09T11:10:27.100Z,100984.59160868589
2024-05-09T11:13:29.945Z,100973.51526689652
2024-05-09T11:16:27.558Z,100974.03684365677
2024-05-09T11:19:31.082Z,100983.35989111134
2024-05-09T11:22:31.560Z,100977.22784970155
2024-05-09T11:25:30.134Z,100971.21455628502
2024-05-09T11:28:31.729Z,100968.76784627544
2024-05-09T11:31:45.259Z,100970.66310473937
2024-05-09T11:34:43.814Z,100965.49786046402
2024-05-09T11:37:46.308Z,100978.8350098596
2024-05-09T11:40:43.946Z,100969.89745783123
2024-05-09T11:43:41.408Z,100966.60158692075
2024-05-09T11:46:39.303Z,100962.8047237424
2024-05-09T11:49:36.592Z,100970.60756402585
2024-05-09T11:52:35.059Z,100967.08292068497
2024-05-09T11:55:35.676Z,100969.74717460999
2024-05-09T11:58:34.176Z,100958.9195425065
2024-05-09T12:01:32.038Z,100964.8571119428
2024-05-09T12:04:30.425Z,100963.25924758431
2024-05-09T12:07:27.926Z,100965.28832671329
2024-05-09T12:10:32.854Z,100954.23475098224
2024-05-09T12:13:33.072Z,100963.1991614898
2024-05-09T12:16:30.575Z,100958.55033355534
2024-05-09T12:19:28.095Z,100962.14162698966
2024-05-09T12:22:25.661Z,100963.54517373428
2024-05-09T12:25:23.206Z,100962.63648706276
2024-05-09T12:28:20.772Z,100961.49547418312
2024-05-09T12:31:18.327Z,100965.21655849149
2024-05-09T12:34:15.950Z,100965.44265062944
2024-05-09T12:37:20.419Z,100968.21275328197
2024-05-09T12:40:30.652Z,100965.67338683229
2024-05-09T12:43:32.546Z,100964.05528573944
2024-05-09T12:46:34.003Z,100963.45111654598
2024-05-09T12:49:31.785Z,100957.10508552194
2024-05-09T12:52:29.108Z,100952.27340065353
2024-05-09T12:55:28.089Z,100962.88194930438
2024-05-09T12:58:27.716Z,100960.75163288429
2024-05-09T13:01:25.805Z,100965.68333755026
2024-05-09T13:04:23.471Z,100955.55873642048
2024-05-09T13:07:21.896Z,100960.41471589384
2024-05-09T13:10:25.653Z,100953.72112411725
2024-05-09T13:13:29.008Z,100957.64011269216
2024-05-09T13:16:27.603Z,100953.14967719644
2024-05-09T13:19:25.089Z,100955.47297136861
2024-05-09T13:22:22.638Z,100952.93200619078
2024-05-09T13:25:20.204Z,100954.54542206465
2024-05-09T13:28:19.024Z,100960.17340868514
2024-05-09T13:31:17.318Z,100949.70050155855
2024-05-09T13:34:14.925Z,100949.01128582163
2024-05-09T13:37:12.524Z,100952.57589889225
2024-05-09T13:40:14.021Z,100943.22825477754
2024-05-09T13:43:12.577Z,100950.13291320691
2024-05-09T13:46:10.113Z,100940.40153458247
2024-05-09T13:49:08.657Z,100942.52955104127
2024-05-09T13:52:08.219Z,100934.52971330033
2024-05-09T13:55:06.801Z,100940.00214988318
2024-05-09T13:58:04.302Z,100942.25895642828
2024-05-09T14:01:02.929Z,100929.33809329261
2024-05-09T14:04:02.589Z,100933.8927942524
2024-05-09T14:06:59.997Z,100933.5425302337
2024-05-09T14:09:57.508Z,100930.04129792424
2024-05-09T14:13:04.031Z,100923.89130511819
2024-05-09T14:16:01.645Z,100924.93394191394
2024-05-09T14:18:59.148Z,100917.755055831
2024-05-09T14:21:57.742Z,100931.46387338593
2024-05-09T14:24:55.293Z,100919.83340825584
2024-05-09T14:27:52.874Z,100921.17429484215
2024-05-09T14:30:51.489Z,100915.67031176218
2024-05-09T14:33:55.089Z,100923.38083261903
2024-05-09T14:36:52.508Z,100914.6599818361
2024-05-09T14:39:52.099Z,100921.25823475237
2024-05-09T14:42:49.585Z,100916.99677562495
2024-05-09T14:45:48.185Z,100914.02875061757
2024-05-09T14:48:47.750Z,100909.20459010203
2024-05-09T14:51:47.298Z,100906.21298891451
2024-05-09T14:54:45.017Z,100912.6039213933
2024-05-09T14:57:43.358Z,100911.87010135355
2024-05-09T15:00:45.688Z,100904.74543796942
2024-05-09T15:03:48.570Z,100898.88216305643
2024-05-09T15:06:48.997Z,100897.92266303061
2024-05-09T15:09:46.567Z,100903.16976875166
2024-05-09T15:12:44.097Z,100901.50969176239
2024-05-09T15:15:42.708Z,100895.80279054465
2024-05-09T15:18:43.138Z,100897.95077339372
2024-05-09T15:21:41.809Z,100891.11104850692
2024-05-09T15:24:41.678Z,100887.06406419892
2024-05-09T15:27:39.881Z,100882.56634124946
2024-05-09T15:30:37.877Z,100887.91681612188
2024-05-09T15:33:35.997Z,100886.06824477443
2024-05-09T15:36:33.562Z,100888.29878451685
2024-05-09T15:39:32.109Z,100887.51470282237
2024-05-09T15:42:35.658Z,100887.65474984527
2024-05-09T15:45:33.336Z,100875.77900297739
2024-05-09T15:48:30.894Z,100880.80348484562
2024-05-09T15:51:28.286Z,100872.84633543747
2024-05-09T15:54:25.879Z,100874.53385086771
2024-05-09T15:57:24.452Z,100874.24837029076
2024-05-09T16:00:36.249Z,100873.22704310805
2024-05-09T16:03:38.729Z,100875.47165198097
2024-05-09T16:06:37.111Z,100872.11383339348
2024-05-09T16:09:34.612Z,100870.82926466229
2024-05-09T16:12:32.207Z,100874.59851763575
2024-05-09T16:15:30.985Z,100866.16821198263
2024-05-09T16:18:29.257Z,100871.01885161949
2024-05-09T16:21:32.203Z,100864.04377321138
2024-05-09T16:24:30.483Z,100864.72316329856
2024-05-09T16:27:28.906Z,100864.50756043849
2024-05-09T16:30:31.874Z,100868.1515244047
2024-05-09T16:33:33.393Z,100869.53185726018
2024-05-09T16:36:31.935Z,100865.76933099952
2024-05-09T16:39:30.164Z,100866.55952011884
2024-05-09T16:42:33.382Z,100864.45915718391
2024-05-09T16:45:32.229Z,100860.63345061016
2024-05-09T16:48:31.881Z,100867.99242870102
2024-05-09T16:51:29.303Z,100870.22659935166
2024-05-09T16:54:26.857Z,100867.1165896983
2024-05-09T16:57:24.408Z,100872.8109848701
2024-05-09T17:00:30.710Z,100865.03478977126
2024-05-09T17:03:34.731Z,100868.4897136943
2024-05-09T17:06:36.079Z,100872.35592593343
2024-05-09T17:09:34.684Z,100863.28855298387
2024-05-09T17:12:32.240Z,100867.83949937968
2024-05-09T17:15:29.747Z,100873.56743074946
2024-05-09T17:18:28.296Z,100880.74411660511
2024-05-09T17:21:26.800Z,100881.72450211839
2024-05-09T17:24:28.347Z,100878.04979379661
2024-05-09T17:27:28.915Z,100878.7579956609
2024-05-09T17:30:35.532Z,100876.4729003897
2024-05-09T17:33:35.160Z,100873.10555268476
2024-05-09T17:36:36.952Z,100879.88715732
2024-05-09T17:39:36.181Z,100888.02002760292
2024-05-09T17:42:34.688Z,100882.65706781275
2024-05-09T17:45:37.236Z,100888.28470181875
2024-05-09T17:48:36.876Z,100887.55991448963
2024-05-09T17:51:35.354Z,100883.83696707504
2024-05-09T17:54:35.933Z,100892.99433813756
2024-05-09T17:57:34.439Z,100889.49583150093
2024-05-09T18:00:39.285Z,100900.08291771286
2024-05-09T18:03:45.668Z,100900.16417750395
2024-05-09T18:06:47.433Z,100910.10746055694
2024-05-09T18:09:45.601Z,100904.7920787052
2024-05-09T18:12:43.233Z,100903.7697055718
2024-05-09T18:15:41.979Z,100907.64680500631
2024-05-09T18:18:39.422Z,100908.42287580587
2024-05-09T18:21:38.885Z,100905.04382620103
2024-05-09T18:24:40.442Z,100915.37166333405
2024-05-09T18:27:38.037Z,100914.12631551971
2024-05-09T18:30:37.454Z,100913.29599680206
2024-05-09T18:33:36.367Z,100918.90913321402
2024-05-09T18:36:34.585Z,100923.8962891197
2024-05-09T18:39:32.151Z,100924.74305413914
2024-05-09T18:42:30.718Z,100928.08776111797
2024-05-09T18:45:33.266Z,100932.24818040612
2024-05-09T18:48:36.924Z,100933.14670770912
2024-05-09T18:51:45.674Z,100936.99653028992
2024-05-09T18:54:43.933Z,100941.13486073277
2024-05-09T18:57:46.789Z,100943.05043893798
2024-05-09T19:00:54.304Z,100946.44815316022
2024-05-09T19:03:53.613Z,100948.24488553102
2024-05-09T19:06:51.054Z,100949.57506520607
2024-05-09T19:09:49.680Z,100950.5417622114
2024-05-09T19:12:48.223Z,100954.98615028067
2024-05-09T19:15:45.986Z,100963.96626196988
2024-05-09T19:18:44.438Z,100959.91466615764
2024-05-09T19:21:47.913Z,100965.3273759307
2024-05-09T19:24:54.484Z,100964.1202689897
2024-05-09T19:28:03.032Z,100962.32475932603
2024-05-09T19:31:01.474Z,100968.57127929191
2024-05-09T19:34:05.138Z,100966.28552699604
2024-05-09T19:37:03.585Z,100965.39841952224
2024-05-09T19:40:10.370Z,100970.94158784955
2024-05-09T19:43:20.094Z,100976.28845995625
2024-05-09T19:46:23.163Z,100976.86220175987
2024-05-09T19:49:21.766Z,100979.2643163552
2024-05-09T19:52:24.261Z,100981.73076441325
2024-05-09T19:55:27.790Z,100976.53649030147
2024-05-09T19:58:29.789Z,100975.73174385873
2024-05-09T20:01:35.036Z,100975.07427406707
2024-05-09T20:04:34.722Z,100976.14256774684
2024-05-09T20:07:44.917Z,100973.08155758868
2024-05-09T20:10:46.665Z,100974.11296444538
2024-05-09T20:13:47.044Z,100974.35575876053
2024-05-09T20:16:51.720Z,100977.94608718739
2024-05-09T20:20:07.407Z,100974.53027725546
2024-05-09T20:23:06.611Z,100977.36668299603
2024-05-09T20:26:09.151Z,100978.39214706462
2024-05-09T20:29:11.722Z,100972.27854713654
2024-05-09T20:32:09.424Z,100971.6278326342
2024-05-09T20:35:06.772Z,100974.0839745807
2024-05-09T20:38:07.348Z,100976.87903549553
2024-05-09T20:41:05.950Z,100976.66952187364
2024-05-09T20:44:03.479Z,100981.03966857481
2024-05-09T20:47:05.991Z,100988.93231905073
2024-05-09T20:50:05.201Z,100985.96589118398
2024-05-09T20:53:06.117Z,100986.60481074227
2024-05-09T20:56:05.038Z,100992.944789227
2024-05-09T20:59:03.246Z,100984.08278906003
2024-05-09T21:02:05.883Z,100983.22141019841
2024-05-09T21:05:12.911Z,100989.99215181489
2024-05-09T21:08:10.863Z,100986.2581779117
2024-05-09T21:11:08.397Z,100992.93167920173
2024-05-09T21:14:07.953Z,101000.08191707722
2024-05-09T21:17:06.671Z,100998.34480313351
2024-05-09T21:20:07.302Z,100997.7516542977
2024-05-09T21:23:07.632Z,100997.97477730273
2024-05-09T21:26:07.161Z,100993.68018676351
2024-05-09T21:29:04.715Z,100992.56887851142
2024-05-09T21:32:02.285Z,100995.53136003364
2024-05-09T21:34:59.868Z,101001.15708999887
2024-05-09T21:37:58.377Z,101005.97018032309
2024-05-09T21:40:58.042Z,101002.75078647933
2024-05-09T21:43:55.486Z,101001.82497056214
2024-05-09T21:46:54.119Z,101006.07748077821
2024-05-09T21:49:51.604Z,101011.21320478825
2024-05-09T21:52:49.164Z,101009.84199308204
2024-05-09T21:55:46.722Z,101010.18110605054
2024-05-09T21:58:45.362Z,101012.13334507051
2024-05-09T22:01:42.919Z,101010.39397684815
2024-05-09T22:04:40.594Z,101017.59901045678
2024-05-09T22:07:38.949Z,101017.61615862807
2024-05-09T22:10:37.251Z,101025.24069271817
2024-05-09T22:13:35.074Z,101025.6195336621
2024-05-09T22:16:32.697Z,101026.26541431564
2024-05-09T22:19:31.167Z,101022.10209276386
2024-05-09T22:22:28.761Z,101023.7655165301
2024-05-09T22:25:30.684Z,101026.5079432831
2024-05-09T22:28:28.829Z,101021.53022248068
2024-05-09T22:31:28.532Z,101028.3002163955
2024-05-09T22:34:26.151Z,101029.8125807713
2024-05-09T22:37:23.557Z,101036.41946642929
2024-05-09T22:40:32.204Z,101035.11479829592
2024-05-09T22:43:36.571Z,101033.14233604887
2024-05-09T22:46:35.196Z,101035.88448068968
2024-05-09T22:49:32.678Z,101052.34976488318
2024-05-09T22:52:32.220Z,101052.96740576052
2024-05-09T22:55:29.778Z,101062.72327165781
2024-05-09T22:58:27.516Z,101065.28704246701
2024-05-09T23:01:26.709Z,101062.97480514892
2024-05-09T23:04:24.518Z,101063.68695329847
2024-05-09T23:07:24.023Z,101062.14056625139
2024-05-09T23:10:28.250Z,101060.46353604461
2024-05-09T23:13:34.136Z,101055.08283879871
2024-05-09T23:16:31.660Z,101061.24398002152
2024-05-09T23:19:30.262Z,101059.293137322
2024-05-09T23:22:27.751Z,101050.80309809459
2024-05-09T23:25:26.337Z,101046.91259726652
2024-05-09T23:28:24.013Z,101050.6650128254
2024-05-09T23:31:21.517Z,101053.10980054786
2024-05-09T23:34:19.177Z,101047.96295738428
2024-05-09T23:37:16.610Z,101042.81749612307
2024-05-09T23:40:18.663Z,101048.29504840524
2024-05-09T23:43:16.682Z,101051.83758021446
2024-05-09T23:46:14.190Z,101047.41028269759
2024-05-09T23:49:11.836Z,101047.13959233632
2024-05-09T23:52:10.331Z,101044.75422814232
2024-05-09T23:55:07.873Z,101048.31693545688
2024-05-09T23:58:05.649Z,101043.35641346734
